createdAt,value
2018-12-23T00:01:51.031Z,7.00
2018-12-23T00:04:19.575Z,7.00
2018-12-23T00:06:48.100Z,7.00
2018-12-23T00:09:16.593Z,7.00
2018-12-23T00:11:45.172Z,7.00
2018-12-23T00:14:13.703Z,7.00
2018-12-23T00:16:42.420Z,6.90
2018-12-23T00:19:11.016Z,6.90
2018-12-23T00:21:39.930Z,6.90
2018-12-23T00:24:08.831Z,6.90
2018-12-23T00:26:37.410Z,6.90
2018-12-23T00:29:05.956Z,6.90
2018-12-23T00:31:34.529Z,7.00
2018-12-23T00:34:03.076Z,7.00
2018-12-23T00:36:31.620Z,7.00
2018-12-23T00:39:00.256Z,7.10
2018-12-23T00:41:29.613Z,7.10
2018-12-23T00:43:58.103Z,7.10
2018-12-23T00:46:27.899Z,7.10
2018-12-23T00:48:58.196Z,7.10
2018-12-23T00:51:27.748Z,7.20
2018-12-23T00:53:57.083Z,7.30
2018-12-23T00:56:26.032Z,7.30
2018-12-23T00:58:55.043Z,7.30
2018-12-23T01:01:23.608Z,7.30
2018-12-23T01:03:52.341Z,7.30
2018-12-23T01:06:21.350Z,7.40
2018-12-23T01:08:50.589Z,7.40
2018-12-23T01:11:19.191Z,7.40
2018-12-23T01:13:47.906Z,7.40
2018-12-23T01:16:16.534Z,7.50
2018-12-23T01:18:45.149Z,7.50
2018-12-23T01:21:13.693Z,7.50
2018-12-23T01:23:42.319Z,7.50
2018-12-23T01:26:11.259Z,7.50
2018-12-23T01:28:44.513Z,7.50
2018-12-23T01:31:13.204Z,7.50
2018-12-23T01:33:41.772Z,7.50
2018-12-23T01:36:10.442Z,7.50
2018-12-23T01:38:39.043Z,7.50
2018-12-23T01:41:07.843Z,7.50
2018-12-23T01:43:36.546Z,7.50
2018-12-23T01:46:05.196Z,7.50
2018-12-23T01:48:33.797Z,7.50
2018-12-23T01:51:02.349Z,7.50
2018-12-23T01:53:30.951Z,7.50
2018-12-23T01:55:59.473Z,7.50
2018-12-23T01:58:28.015Z,7.50
2018-12-23T02:00:56.534Z,7.40
2018-12-23T02:03:25.195Z,7.40
2018-12-23T02:05:53.773Z,7.40
2018-12-23T02:08:22.336Z,7.40
2018-12-23T02:10:50.921Z,7.40
2018-12-23T02:13:19.519Z,7.40
2018-12-23T02:15:48.055Z,7.40
2018-12-23T02:18:16.581Z,7.40
2018-12-23T02:20:45.144Z,7.50
2018-12-23T02:23:13.763Z,7.50
2018-12-23T02:25:42.629Z,7.50
2018-12-23T02:28:11.098Z,7.50
2018-12-23T02:30:39.529Z,7.50
2018-12-23T02:33:08.004Z,7.50
2018-12-23T02:35:36.511Z,7.50
2018-12-23T02:38:04.982Z,7.50
2018-12-23T02:40:33.440Z,7.50
2018-12-23T02:43:01.922Z,7.50
2018-12-23T02:45:30.416Z,7.50
2018-12-23T02:47:58.918Z,7.50
2018-12-23T02:50:27.388Z,7.50
2018-12-23T02:52:55.841Z,7.50
2018-12-23T02:55:24.326Z,7.40
2018-12-23T02:57:52.767Z,7.50
2018-12-23T03:00:21.240Z,7.50
2018-12-23T03:02:49.658Z,7.50
2018-12-23T03:05:18.122Z,7.40
2018-12-23T03:07:46.625Z,7.50
2018-12-23T03:10:15.063Z,7.50
2018-12-23T03:12:43.524Z,7.50
2018-12-23T03:15:12.117Z,7.50
2018-12-23T03:17:40.665Z,7.50
2018-12-23T03:20:09.171Z,7.50
2018-12-23T03:22:37.688Z,7.50
2018-12-23T03:25:06.371Z,7.50
2018-12-23T03:27:34.914Z,7.50
2018-12-23T03:30:03.666Z,7.50
2018-12-23T03:32:32.210Z,7.50
2018-12-23T03:35:00.727Z,7.50
2018-12-23T03:37:29.321Z,7.50
2018-12-23T03:39:57.811Z,7.50
2018-12-23T03:42:26.366Z,7.50
2018-12-23T03:44:54.901Z,7.50
2018-12-23T03:47:23.421Z,7.50
2018-12-23T03:49:51.892Z,7.50
2018-12-23T03:52:20.446Z,7.50
2018-12-23T03:54:48.934Z,7.50
2018-12-23T03:57:17.582Z,7.50
2018-12-23T03:59:46.126Z,7.50
2018-12-23T04:02:14.628Z,7.50
2018-12-23T04:04:43.120Z,7.50
2018-12-23T04:07:11.628Z,7.50
2018-12-23T04:09:40.095Z,7.60
2018-12-23T04:12:08.650Z,7.50
2018-12-23T04:14:37.175Z,7.50
2018-12-23T04:17:05.757Z,7.60
2018-12-23T04:19:34.559Z,7.60
2018-12-23T04:22:03.101Z,7.60
2018-12-23T04:24:31.583Z,7.60
2018-12-23T04:27:00.098Z,7.60
2018-12-23T04:29:28.592Z,7.60
2018-12-23T04:31:57.164Z,7.60
2018-12-23T04:34:25.807Z,7.60
2018-12-23T04:36:54.331Z,7.60
2018-12-23T04:39:22.897Z,7.60
2018-12-23T04:41:51.398Z,7.60
2018-12-23T04:44:20.713Z,7.60
2018-12-23T04:46:49.453Z,7.60
2018-12-23T04:49:17.975Z,7.60
2018-12-23T04:51:47.028Z,7.60
2018-12-23T04:54:15.560Z,7.60
2018-12-23T04:56:44.026Z,7.60
2018-12-23T04:59:12.482Z,7.60
2018-12-23T05:01:40.958Z,7.60
2018-12-23T05:04:09.458Z,7.60
2018-12-23T05:06:43.331Z,7.60
2018-12-23T05:09:08.471Z,7.60
2018-12-23T05:11:36.893Z,7.60
2018-12-23T05:14:05.383Z,7.60
2018-12-23T05:16:33.844Z,7.60
2018-12-23T05:19:02.413Z,7.60
2018-12-23T05:21:30.902Z,7.60
2018-12-23T05:23:59.474Z,7.60
2018-12-23T05:26:28.055Z,7.60
2018-12-23T05:28:56.652Z,7.60
2018-12-23T05:31:25.268Z,7.60
2018-12-23T05:33:53.938Z,7.60
2018-12-23T05:36:22.490Z,7.60
2018-12-23T05:38:51.069Z,7.60
2018-12-23T05:41:19.614Z,7.60
2018-12-23T05:43:48.195Z,7.60
2018-12-23T05:46:16.797Z,7.50
2018-12-23T05:48:45.297Z,7.50
2018-12-23T05:51:13.719Z,7.50
2018-12-23T05:53:42.404Z,7.50
2018-12-23T05:56:10.876Z,7.50
2018-12-23T05:58:39.531Z,7.50
2018-12-23T06:01:08.047Z,7.60
2018-12-23T06:03:36.634Z,7.60
2018-12-23T06:06:05.160Z,7.60
2018-12-23T06:08:33.755Z,7.60
2018-12-23T06:11:02.262Z,7.60
2018-12-23T06:13:30.946Z,7.60
2018-12-23T06:15:59.611Z,7.60
2018-12-23T06:18:28.165Z,7.60
2018-12-23T06:20:56.809Z,7.50
2018-12-23T06:23:25.372Z,7.60
2018-12-23T06:25:53.845Z,7.60
2018-12-23T06:28:22.372Z,7.60
2018-12-23T06:30:50.889Z,7.60
2018-12-23T06:33:19.673Z,7.50
2018-12-23T06:35:48.222Z,7.60
2018-12-23T06:38:16.797Z,7.60
2018-12-23T06:40:45.425Z,7.60
2018-12-23T06:43:14.005Z,7.50
2018-12-23T06:45:42.461Z,7.60
2018-12-23T06:48:10.929Z,7.50
2018-12-23T06:50:39.422Z,7.50
2018-12-23T06:53:07.853Z,7.50
2018-12-23T06:55:36.334Z,7.50
2018-12-23T06:58:04.898Z,7.50
2018-12-23T07:00:33.358Z,7.50
2018-12-23T07:03:01.935Z,7.50
2018-12-23T07:05:30.617Z,7.50
2018-12-23T07:07:59.474Z,7.50
2018-12-23T07:10:28.064Z,7.50
2018-12-23T07:12:56.510Z,7.50
2018-12-23T07:15:25.329Z,7.50
2018-12-23T07:17:53.815Z,7.50
2018-12-23T07:20:22.386Z,7.50
2018-12-23T07:22:50.959Z,7.50
2018-12-23T07:25:19.556Z,7.50
2018-12-23T07:27:48.129Z,7.50
2018-12-23T07:30:16.639Z,7.50
2018-12-23T07:32:45.198Z,7.50
2018-12-23T07:35:13.771Z,7.50
2018-12-23T07:37:42.257Z,7.50
2018-12-23T07:40:10.889Z,7.50
2018-12-23T07:42:39.461Z,7.50
2018-12-23T07:45:08.337Z,7.50
2018-12-23T07:47:36.908Z,7.50
2018-12-23T07:50:06.066Z,7.50
2018-12-23T07:52:34.559Z,7.50
2018-12-23T07:55:03.284Z,7.50
2018-12-23T07:57:31.872Z,7.50
2018-12-23T08:00:04.237Z,7.50
2018-12-23T08:02:32.796Z,7.50
2018-12-23T08:05:01.283Z,7.50
2018-12-23T08:07:36.105Z,7.50
2018-12-23T08:10:00.378Z,7.50
2018-12-23T08:12:28.844Z,7.50
2018-12-23T08:14:57.337Z,7.50
2018-12-23T08:17:25.892Z,7.50
2018-12-23T08:19:54.353Z,7.50
2018-12-23T08:22:23.068Z,7.60
2018-12-23T08:24:51.526Z,7.60
2018-12-23T08:27:19.965Z,7.60
2018-12-23T08:29:48.465Z,7.60
2018-12-23T08:32:16.968Z,7.60
2018-12-23T08:34:45.465Z,7.70
2018-12-23T08:37:13.961Z,7.70
2018-12-23T08:39:42.396Z,7.70
2018-12-23T08:42:10.923Z,7.70
2018-12-23T08:44:39.379Z,7.70
2018-12-23T08:47:07.985Z,7.80
2018-12-23T08:49:36.413Z,7.70
2018-12-23T08:52:04.924Z,7.80
2018-12-23T08:54:33.340Z,7.80
2018-12-23T08:57:01.814Z,7.80
2018-12-23T08:59:30.338Z,7.80
2018-12-23T09:01:58.847Z,7.80
2018-12-23T09:04:27.284Z,7.80
2018-12-23T09:06:55.737Z,7.80
2018-12-23T09:09:24.185Z,7.80
2018-12-23T09:11:52.673Z,7.80
2018-12-23T09:14:21.100Z,7.80
2018-12-23T09:16:49.583Z,7.80
2018-12-23T09:19:18.136Z,7.90
2018-12-23T09:21:46.681Z,7.90
2018-12-23T09:24:15.315Z,7.90
2018-12-23T09:26:43.787Z,7.90
2018-12-23T09:29:12.221Z,7.90
2018-12-23T09:31:40.684Z,7.90
2018-12-23T09:34:09.155Z,7.90
2018-12-23T09:36:37.687Z,7.90
2018-12-23T09:39:07.254Z,7.90
2018-12-23T09:41:35.806Z,7.90
2018-12-23T09:44:04.239Z,7.90
2018-12-23T09:46:32.725Z,8.00
2018-12-23T09:49:01.205Z,8.00
2018-12-23T09:51:30.407Z,8.00
2018-12-23T09:53:59.364Z,8.00
2018-12-23T09:56:27.865Z,8.00
2018-12-23T09:58:56.292Z,8.00
2018-12-23T10:01:24.797Z,8.00
2018-12-23T10:03:53.256Z,8.00
2018-12-23T10:06:22.244Z,8.00
2018-12-23T10:08:50.833Z,8.00
2018-12-23T10:11:19.404Z,8.00
2018-12-23T10:13:47.829Z,8.10
2018-12-23T10:16:24.369Z,8.10
2018-12-23T10:18:53.646Z,8.10
2018-12-23T10:21:22.203Z,8.00
2018-12-23T10:23:50.698Z,8.00
2018-12-23T10:26:19.179Z,8.10
2018-12-23T10:28:47.637Z,8.10
2018-12-23T10:31:16.257Z,8.10
2018-12-23T10:33:44.854Z,8.10
2018-12-23T10:36:13.330Z,8.10
2018-12-23T10:38:41.816Z,8.10
2018-12-23T10:41:10.311Z,8.10
2018-12-23T10:43:38.837Z,8.20
2018-12-23T10:46:07.671Z,8.20
2018-12-23T10:48:36.167Z,8.20
2018-12-23T10:51:04.829Z,8.20
2018-12-23T10:53:33.967Z,8.20
2018-12-23T10:56:02.509Z,8.20
2018-12-23T10:58:30.967Z,8.20
2018-12-23T11:00:59.441Z,8.20
2018-12-23T11:03:27.894Z,8.10
2018-12-23T11:05:56.358Z,8.20
2018-12-23T11:09:20.819Z,8.20
2018-12-23T11:12:02.795Z,8.20
2018-12-23T11:14:44.387Z,8.20
2018-12-23T11:17:27.484Z,8.20
2018-12-23T11:20:10.224Z,8.20
2018-12-23T11:22:53.574Z,8.20
2018-12-23T11:25:35.996Z,8.20
2018-12-23T11:28:19.003Z,8.20
2018-12-23T11:31:01.135Z,8.20
2018-12-23T11:36:27.515Z,8.20
2018-12-23T11:39:08.713Z,8.20
2018-12-23T11:41:50.810Z,8.20
2018-12-23T11:44:32.901Z,8.20
2018-12-23T11:47:15.779Z,8.20
2018-12-23T11:49:57.774Z,8.20
2018-12-23T11:52:39.887Z,8.20
2018-12-23T11:55:23.373Z,8.20
2018-12-23T11:58:05.413Z,8.20
2018-12-23T12:00:35.257Z,8.20
2018-12-23T12:03:24.402Z,8.10
2018-12-23T12:09:10.284Z,8.10
2018-12-23T12:12:18.043Z,8.00
2018-12-23T12:15:06.846Z,8.00
2018-12-23T12:17:55.670Z,8.00
2018-12-23T12:20:44.381Z,7.90
2018-12-23T12:23:26.751Z,7.90
2018-12-23T12:26:09.110Z,7.90
2018-12-23T12:28:51.075Z,7.90
2018-12-23T12:37:15.164Z,7.90
2018-12-23T12:39:54.475Z,7.90
2018-12-23T12:42:25.525Z,7.90
2018-12-23T12:44:55.905Z,7.90
2018-12-23T12:47:26.823Z,7.90
2018-12-23T12:49:57.135Z,7.90
2018-12-23T12:52:28.305Z,7.90
2018-12-23T12:55:02.932Z,7.90
2018-12-23T12:57:36.784Z,7.90
2018-12-23T13:00:33.079Z,7.90
2018-12-23T13:03:06.350Z,7.90
2018-12-23T13:05:38.042Z,7.90
2018-12-23T13:08:09.693Z,7.90
2018-12-23T13:10:43.435Z,7.90
2018-12-23T13:13:18.990Z,7.90
2018-12-23T13:15:50.249Z,7.90
2018-12-23T13:18:23.432Z,7.90
2018-12-23T13:21:17.934Z,7.90
2018-12-23T13:24:26.564Z,7.90
2018-12-23T13:26:59.259Z,7.90
2018-12-23T13:29:30.158Z,7.90
2018-12-23T13:32:02.138Z,7.90
2018-12-23T13:34:36.144Z,7.90
2018-12-23T13:37:09.925Z,7.90
2018-12-23T13:39:40.976Z,7.90
2018-12-23T13:42:49.732Z,7.90
2018-12-23T13:46:02.889Z,7.90
2018-12-23T13:49:04.229Z,7.80
2018-12-23T13:52:18.673Z,7.80
2018-12-23T13:55:22.029Z,7.80
2018-12-23T13:58:32.466Z,7.80
2018-12-23T14:01:32.856Z,7.80
2018-12-23T14:04:33.655Z,7.70
2018-12-23T14:07:46.292Z,7.70
2018-12-23T14:10:36.853Z,7.70
2018-12-23T14:13:09.953Z,7.60
2018-12-23T14:15:40.462Z,7.60
2018-12-23T14:18:12.775Z,7.60
2018-12-23T14:21:01.550Z,7.60
2018-12-23T14:23:50.301Z,7.50
2018-12-23T14:26:39.067Z,7.50
2018-12-23T14:29:27.880Z,7.50
2018-12-23T14:32:16.810Z,7.50
2018-12-23T14:35:05.706Z,7.50
2018-12-23T14:37:54.539Z,7.40
2018-12-23T14:40:43.375Z,7.40
2018-12-23T14:43:32.161Z,7.40
2018-12-23T14:46:20.986Z,7.40
2018-12-23T14:49:09.787Z,7.40
2018-12-23T14:51:58.628Z,7.40
2018-12-23T14:54:47.377Z,7.40
2018-12-23T14:57:36.214Z,7.40
2018-12-23T15:00:24.994Z,7.30
2018-12-23T15:03:13.988Z,7.40
2018-12-23T15:05:43.809Z,7.40
2018-12-23T15:08:32.616Z,7.40
2018-12-23T15:11:21.685Z,7.40
2018-12-23T15:13:52.033Z,7.40
2018-12-23T15:16:40.793Z,7.40
2018-12-23T15:19:29.937Z,7.40
2018-12-23T15:22:18.731Z,7.40
2018-12-23T15:25:00.307Z,7.50
2018-12-23T15:27:42.358Z,7.50
2018-12-23T15:30:23.793Z,7.50
2018-12-23T15:33:04.966Z,7.50
2018-12-23T15:35:46.408Z,7.50
2018-12-23T15:38:29.556Z,7.50
2018-12-23T15:41:11.171Z,7.50
2018-12-23T15:43:52.837Z,7.50
2018-12-23T15:46:34.202Z,7.50
2018-12-23T15:49:15.824Z,7.50
2018-12-23T15:51:56.841Z,7.50
2018-12-23T15:54:46.025Z,7.50
2018-12-23T15:57:21.219Z,7.50
2018-12-23T16:00:02.115Z,7.50
2018-12-23T16:02:43.627Z,7.50
2018-12-23T16:05:24.643Z,7.50
2018-12-23T16:08:06.283Z,7.50
2018-12-23T16:10:47.660Z,7.50
2018-12-23T16:13:29.201Z,7.50
2018-12-23T16:16:09.998Z,7.50
2018-12-23T16:18:51.561Z,7.50
2018-12-23T16:21:33.408Z,7.50
2018-12-23T16:24:15.033Z,7.50
2018-12-23T16:26:56.834Z,7.50
2018-12-23T16:29:38.573Z,7.50
2018-12-23T16:32:20.192Z,7.50
2018-12-23T16:34:50.041Z,7.60
2018-12-23T16:37:39.302Z,7.60
2018-12-23T16:40:28.082Z,7.60
2018-12-23T16:43:16.901Z,7.50
2018-12-23T16:45:58.470Z,7.60
2018-12-23T16:48:40.144Z,7.60
2018-12-23T16:51:22.201Z,7.50
2018-12-23T16:54:06.006Z,7.50
2018-12-23T16:56:47.758Z,7.60
2018-12-23T16:59:28.695Z,7.50
2018-12-23T17:04:57.453Z,7.60
2018-12-23T17:07:39.020Z,7.50
2018-12-23T17:10:23.252Z,7.50
2018-12-23T17:16:10.369Z,7.50
2018-12-23T17:18:40.543Z,7.50
2018-12-23T17:21:11.402Z,7.50
2018-12-23T17:23:41.601Z,7.50
2018-12-23T17:26:11.858Z,7.50
2018-12-23T17:28:42.076Z,7.50
2018-12-23T17:31:12.307Z,7.50
2018-12-23T17:33:43.011Z,7.50
2018-12-23T17:36:13.216Z,7.50
2018-12-23T17:38:43.840Z,7.50
2018-12-23T17:41:14.012Z,7.40
2018-12-23T17:43:44.236Z,7.40
2018-12-23T17:46:14.462Z,7.40
2018-12-23T17:48:44.866Z,7.40
2018-12-23T17:51:15.053Z,7.40
2018-12-23T17:53:45.820Z,7.40
2018-12-23T17:56:16.027Z,7.40
2018-12-23T17:58:46.905Z,7.40
2018-12-23T18:01:17.173Z,7.40
2018-12-23T18:03:47.527Z,7.40
2018-12-23T18:06:17.635Z,7.40
2018-12-23T18:08:47.786Z,7.40
2018-12-23T18:11:18.212Z,7.40
2018-12-23T18:13:48.541Z,7.50
2018-12-23T18:16:19.390Z,7.40
2018-12-23T18:18:50.068Z,7.40
2018-12-23T18:21:20.321Z,7.40
2018-12-23T18:23:50.448Z,7.50
2018-12-23T18:26:20.751Z,7.40
2018-12-23T18:28:51.288Z,7.40
2018-12-23T18:31:21.433Z,7.40
2018-12-23T18:33:52.127Z,7.40
2018-12-23T18:36:22.363Z,7.40
2018-12-23T18:38:53.299Z,7.40
2018-12-23T18:41:23.491Z,7.30
2018-12-23T18:43:53.656Z,7.20
2018-12-23T18:46:31.800Z,7.10
2018-12-23T18:49:04.282Z,7.00
2018-12-23T18:51:34.894Z,7.00
2018-12-23T18:54:09.590Z,6.90
2018-12-23T18:57:05.975Z,6.90
2018-12-23T19:00:00.910Z,6.80
2018-12-23T19:02:42.230Z,6.80
2018-12-23T19:08:25.650Z,6.80
2018-12-23T19:11:33.370Z,6.70
2018-12-23T19:14:41.102Z,6.70
2018-12-23T19:17:49.200Z,6.70
2018-12-23T19:20:45.072Z,6.80
2018-12-23T19:23:52.857Z,6.80
2018-12-23T19:26:34.436Z,6.70
2018-12-23T19:29:16.357Z,6.70
2018-12-23T19:31:58.326Z,6.80
2018-12-23T19:34:39.783Z,6.80
2018-12-23T19:43:48.297Z,6.80
2018-12-23T20:00:27.902Z,6.80
2018-12-23T20:10:13.998Z,6.80
2018-12-23T20:13:24.007Z,6.80
2018-12-23T20:16:38.135Z,6.80
2018-12-23T20:19:47.735Z,6.80
2018-12-23T20:23:01.718Z,6.80
2018-12-23T20:26:21.506Z,6.80
2018-12-23T20:29:34.376Z,6.80
2018-12-23T20:32:39.772Z,6.80
2018-12-23T20:36:11.888Z,6.80
2018-12-23T20:39:27.830Z,6.80
2018-12-23T20:42:15.753Z,6.80
2018-12-23T20:45:27.005Z,6.80
2018-12-23T20:48:49.126Z,6.80
2018-12-23T20:51:50.473Z,6.80
2018-12-23T20:54:56.723Z,6.80
2018-12-23T20:57:46.579Z,6.80
2018-12-23T21:01:03.887Z,6.80
2018-12-23T21:03:50.393Z,6.80
2018-12-23T21:07:08.625Z,6.80
2018-12-23T21:10:18.540Z,6.80
2018-12-23T21:16:34.073Z,6.80
2018-12-23T21:19:41.834Z,6.80
2018-12-23T21:22:49.579Z,6.80
2018-12-23T21:25:57.306Z,6.80
2018-12-23T21:29:06.093Z,6.90
2018-12-23T21:32:13.854Z,6.80
2018-12-23T21:35:16.381Z,6.80
2018-12-23T21:38:24.056Z,6.80
2018-12-23T21:41:31.801Z,6.90
2018-12-23T21:44:39.524Z,6.90
2018-12-23T21:47:23.362Z,6.80
2018-12-23T21:52:56.550Z,6.80
2018-12-23T21:58:28.716Z,6.80
2018-12-23T22:01:20.740Z,6.80
2018-12-23T22:09:47.295Z,6.90
2018-12-23T22:12:28.552Z,6.90
2018-12-23T22:15:10.051Z,6.90
2018-12-23T22:17:51.727Z,6.80
2018-12-23T22:20:33.509Z,6.90
2018-12-23T22:23:14.968Z,6.80
2018-12-23T22:25:56.065Z,6.80
2018-12-23T22:28:37.330Z,6.80
2018-12-23T22:31:07.177Z,6.80
2018-12-23T22:33:56.185Z,6.80
2018-12-23T22:36:44.968Z,6.80
2018-12-23T22:39:34.122Z,6.80
2018-12-23T22:42:22.817Z,6.80
2018-12-23T22:45:03.875Z,6.70
2018-12-23T22:47:44.976Z,6.70
2018-12-23T22:50:14.859Z,6.70
2018-12-23T22:53:03.624Z,6.70
2018-12-23T22:55:52.434Z,6.60
2018-12-23T23:01:40.047Z,6.60
2018-12-23T23:04:27.422Z,6.60
2018-12-23T23:06:57.176Z,6.60
2018-12-23T23:09:46.258Z,6.60
2018-12-23T23:12:36.383Z,6.50
2018-12-23T23:15:25.086Z,6.50
2018-12-23T23:18:13.892Z,6.50
2018-12-23T23:21:02.703Z,6.50
2018-12-23T23:23:52.650Z,6.50
2018-12-23T23:26:35.123Z,6.50
2018-12-23T23:34:55.172Z,6.50
2018-12-23T23:37:56.114Z,6.50
2018-12-23T23:46:22.776Z,6.50
2018-12-23T23:51:59.277Z,6.50
2018-12-23T23:57:34.768Z,6.50
